Terminal Aerodrome Forecast
Issued by NWS Denver/Boulder, CO

Home | Current Version | Previous Version | Text Only | Print | Product List | Glossary On
Versions: 1 2 3 4 5 6 7 8 9 10 11 12 13 14 15 16 17 18 19 20 21 22 23 24 25 26 27 28 29
000
FTUS45 KBOU 080308 AAB
TAFDEN
TAF AMD
KDEN 080308Z 0803/0906 24012KT P6SM FEW060 BKN080 OVC120
     FM080600 25008KT P6SM BKN070 OVC100
     FM081600 32012G22KT P6SM SCT120 BKN180
     FM081900 33015G30KT P6SM FEW100 BKN220
     FM090100 21009KT P6SM SCT220=

USA.gov is the U.S. government's official web portal to all federal, state and local government web resources and services.